Time;durP1;ratioP1;P1;durP2;ratioP2;P2;SDS_P1;SDS_P2;PMS_P1;PMS_P2;Temp;Humidity;BMP_temperature;BMP_pressure;BME280_temperature;BME280_humidity;BME280_pressure;Samples;Min_cycle;Max_cycle;Signal;HPM_P1;HPM_P2
2021/07/23 00:01:11;;;;;;;8.73;6.80;;;;;;;;;;5071877;22;20053;-65
2021/07/23 00:03:57;;;;;;;10.60;6.97;;;;;;;;;;5017141;28;20041;-65
2021/07/23 00:06:42;;;;;;;12.07;7.47;;;;;;;;;;5027251;28;20064;-65
2021/07/23 00:09:28;;;;;;;9.40;7.55;;;;;;;;;;5027835;28;20044;-65
2021/07/23 00:12:13;;;;;;;10.35;8.77;;;;;;;;;;5003002;28;20045;-65
2021/07/23 00:14:59;;;;;;;9.70;7.50;;;;;;;;;;5023772;28;20068;-65
2021/07/23 00:17:44;;;;;;;13.15;8.07;;;;;;;;;;5031741;28;20061;-65
2021/07/23 00:20:29;;;;;;;11.48;8.38;;;;;;;;;;5029841;28;20049;-65
2021/07/23 00:23:15;;;;;;;12.85;9.85;;;;;;;;;;5029753;28;20485;-65
2021/07/23 00:26:00;;;;;;;13.18;9.48;;;;;;;;;;5030045;28;20438;-65
2021/07/23 00:28:46;;;;;;;10.57;9.23;;;;;;;;;;5030544;28;20034;-65
2021/07/23 00:31:31;;;;;;;10.90;9.77;;;;;;;;;;5031592;28;20054;-65
2021/07/23 00:34:16;;;;;;;9.80;8.80;;;;;;;;;;5029558;28;20056;-65
2021/07/23 00:37:02;;;;;;;12.25;10.43;;;;;;;;;;5015506;28;20046;-65
2021/07/23 00:39:48;;;;;;;12.02;10.82;;;;;;;;;;5016131;28;20459;-65
2021/07/23 00:42:42;;;;;;;11.48;9.80;;;;;;;;;;5035438;28;20084;-65
2021/07/23 00:45:30;;;;;;;12.05;10.27;;;;;;;;;;5017279;28;20376;-65
2021/07/23 00:48:15;;;;;;;11.63;10.18;;;;;;;;;;5034396;28;20041;-65
2021/07/23 00:51:01;;;;;;;11.57;10.40;;;;;;;;;;5033876;28;20057;-65
2021/07/23 00:53:46;;;;;;;13.10;10.57;;;;;;;;;;5032688;28;20048;-65
2021/07/23 00:56:31;;;;;;;15.45;11.18;;;;;;;;;;5034151;28;20049;-65
2021/07/23 00:59:17;;;;;;;11.85;10.05;;;;;;;;;;5034092;28;20049;-65
2021/07/23 01:02:03;;;;;;;11.40;9.82;;;;;;;;;;5033809;28;20115;-65
2021/07/23 01:04:49;;;;;;;10.45;9.43;;;;;;;;;;5035046;28;20446;-65
2021/07/23 01:07:36;;;;;;;11.63;9.98;;;;;;;;;;5032585;28;20118;-65
2021/07/23 01:10:22;;;;;;;12.30;11.00;;;;;;;;;;5033603;28;20495;-65
2021/07/23 01:13:24;;;;;;;12.57;10.25;;;;;;;;;;5020745;28;20051;-65
2021/07/23 01:16:11;;;;;;;13.68;11.48;;;;;;;;;;5034829;28;20127;-65
2021/07/23 01:18:56;;;;;;;11.88;10.50;;;;;;;;;;5034658;28;20045;-65
2021/07/23 01:21:42;;;;;;;12.50;10.35;;;;;;;;;;5032006;28;20048;-65
2021/07/23 01:24:30;;;;;;;13.00;10.48;;;;;;;;;;5033697;28;20571;-65
2021/07/23 01:27:21;;;;;;;11.70;10.27;;;;;;;;;;5033617;28;20100;-65
2021/07/23 01:30:19;;;;;;;13.48;10.57;;;;;;;;;;5032562;28;20199;-65
2021/07/23 01:33:12;;;;;;;11.50;10.23;;;;;;;;;;5030247;28;20045;-65
2021/07/23 01:35:57;;;;;;;12.65;11.27;;;;;;;;;;5032942;28;20119;-65
2021/07/23 01:38:43;;;;;;;11.88;10.68;;;;;;;;;;5033464;28;20045;-65
2021/07/23 01:41:29;;;;;;;13.27;11.48;;;;;;;;;;5018550;28;20111;-65
2021/07/23 01:44:16;;;;;;;13.35;12.05;;;;;;;;;;5032348;28;20069;-65
2021/07/23 01:47:03;;;;;;;12.45;11.15;;;;;;;;;;5033486;28;20045;-65
2021/07/23 01:49:50;;;;;;;13.88;11.68;;;;;;;;;;5031920;28;20060;-65
2021/07/23 01:52:38;;;;;;;12.40;11.02;;;;;;;;;;5014571;28;20049;-65
2021/07/23 01:55:26;;;;;;;13.90;12.00;;;;;;;;;;5014295;28;20053;-65
2021/07/23 01:58:12;;;;;;;12.45;11.15;;;;;;;;;;5026568;28;20044;-65
2021/07/23 02:00:58;;;;;;;14.38;11.80;;;;;;;;;;5033726;28;20048;-65
2021/07/23 02:03:47;;;;;;;13.00;10.45;;;;;;;;;;5031091;28;20054;-65
2021/07/23 02:06:33;;;;;;;13.02;11.73;;;;;;;;;;5033808;28;20531;-65
2021/07/23 02:09:19;;;;;;;13.45;11.90;;;;;;;;;;5033955;28;20071;-65
2021/07/23 02:12:12;;;;;;;16.17;12.18;;;;;;;;;;5032249;28;20052;-65
2021/07/23 02:15:20;;;;;;;14.70;12.68;;;;;;;;;;5033059;28;20053;-65
2021/07/23 02:18:06;;;;;;;14.25;12.18;;;;;;;;;;5032699;28;20041;-65
2021/07/23 02:20:56;;;;;;;13.02;11.82;;;;;;;;;;5032307;28;20481;-65
2021/07/23 02:23:42;;;;;;;14.32;12.45;;;;;;;;;;5032793;28;20063;-65
2021/07/23 02:26:28;;;;;;;14.15;11.23;;;;;;;;;;5031425;28;20049;-65
2021/07/23 02:29:14;;;;;;;15.07;11.60;;;;;;;;;;5032609;28;20049;-65
2021/07/23 02:32:04;;;;;;;13.52;11.50;;;;;;;;;;5033256;28;20496;-65
2021/07/23 02:34:50;;;;;;;11.63;10.43;;;;;;;;;;5030432;28;20131;-65
2021/07/23 02:37:35;;;;;;;12.32;10.02;;;;;;;;;;5030494;28;20111;-65
2021/07/23 02:40:21;;;;;;;12.85;10.48;;;;;;;;;;5031249;28;20090;-65
2021/07/23 02:43:14;;;;;;;16.13;11.73;;;;;;;;;;5032130;28;20045;-65
2021/07/23 02:46:01;;;;;;;12.82;11.52;;;;;;;;;;5031737;28;20209;-65
2021/07/23 02:48:47;;;;;;;16.50;11.70;;;;;;;;;;5032075;28;20098;-65
2021/07/23 02:51:32;;;;;;;12.30;10.73;;;;;;;;;;5031255;28;20049;-65
2021/07/23 02:54:22;;;;;;;10.77;9.65;;;;;;;;;;5031937;28;20064;-65
2021/07/23 02:57:08;;;;;;;14.35;10.75;;;;;;;;;;5031746;28;20447;-65
2021/07/23 03:00:00;;;;;;;12.75;9.85;;;;;;;;;;5031393;28;20041;-65
2021/07/23 03:02:46;;;;;;;11.55;10.43;;;;;;;;;;5031616;28;20134;-65
2021/07/23 03:05:32;;;;;;;11.02;9.90;;;;;;;;;;5031348;28;20045;-65
2021/07/23 03:08:23;;;;;;;11.80;10.57;;;;;;;;;;5032736;28;20095;-65
2021/07/23 03:11:13;;;;;;;13.60;11.48;;;;;;;;;;5029709;28;20053;-65
2021/07/23 03:14:19;;;;;;;14.07;11.88;;;;;;;;;;5032652;28;20495;-65
2021/07/23 03:17:21;;;;;;;11.17;9.80;;;;;;;;;;5031408;28;20060;-65
2021/07/23 03:20:07;;;;;;;12.48;9.98;;;;;;;;;;5012481;28;20046;-65
2021/07/23 03:22:52;;;;;;;14.80;10.45;;;;;;;;;;5011812;28;20413;-65
2021/07/23 03:25:58;;;;;;;13.45;10.68;;;;;;;;;;5025776;28;20046;-65
2021/07/23 03:28:52;;;;;;;13.18;10.85;;;;;;;;;;5031526;28;20060;-65
2021/07/23 03:31:39;;;;;;;14.73;11.40;;;;;;;;;;5031940;28;20602;-65
2021/07/23 03:34:31;;;;;;;12.85;10.80;;;;;;;;;;5030396;28;20057;-65
2021/07/23 03:37:26;;;;;;;11.43;9.90;;;;;;;;;;5032280;28;20045;-65
2021/07/23 03:40:13;;;;;;;14.55;10.80;;;;;;;;;;5030212;28;20049;-65
2021/07/23 03:43:02;;;;;;;15.25;11.13;;;;;;;;;;5032220;28;20064;-65
2021/07/23 03:45:55;;;;;;;12.70;10.95;;;;;;;;;;5018498;28;20044;-65
2021/07/23 03:48:42;;;;;;;17.20;11.10;;;;;;;;;;5028170;28;20050;-65
2021/07/23 03:51:34;;;;;;;12.77;10.17;;;;;;;;;;5030830;28;20053;-65
2021/07/23 03:54:20;;;;;;;14.57;10.15;;;;;;;;;;5031137;28;20060;-65
2021/07/23 03:57:06;;;;;;;14.23;10.18;;;;;;;;;;5030258;28;20050;-65
2021/07/23 03:59:51;;;;;;;14.45;9.98;;;;;;;;;;5030494;28;20064;-65
2021/07/23 04:02:37;;;;;;;11.40;9.48;;;;;;;;;;5030761;28;20037;-65
2021/07/23 04:05:23;;;;;;;13.82;10.65;;;;;;;;;;5030944;28;20081;-65
2021/07/23 04:08:12;;;;;;;12.60;9.85;;;;;;;;;;5029728;28;20056;-65
2021/07/23 04:10:58;;;;;;;11.02;9.10;;;;;;;;;;5032719;28;20064;-65
2021/07/23 04:13:50;;;;;;;12.85;8.85;;;;;;;;;;5033793;28;20038;-65
2021/07/23 04:16:36;;;;;;;11.85;8.90;;;;;;;;;;5035179;28;20080;-65
2021/07/23 04:19:21;;;;;;;10.80;8.57;;;;;;;;;;5033712;28;20045;-65
2021/07/23 04:22:22;;;;;;;11.35;8.05;;;;;;;;;;5035890;28;20045;-65
2021/07/23 04:25:17;;;;;;;8.88;7.38;;;;;;;;;;5034784;28;20045;-65
2021/07/23 04:28:06;;;;;;;10.43;8.70;;;;;;;;;;5034630;28;20049;-65
2021/07/23 04:31:06;;;;;;;9.90;8.88;;;;;;;;;;5035261;28;20420;-65
2021/07/23 04:34:00;;;;;;;10.50;8.18;;;;;;;;;;5032114;28;20087;-65
2021/07/23 04:36:48;;;;;;;10.23;9.02;;;;;;;;;;5035440;28;20083;-65
2021/07/23 04:39:57;;;;;;;10.00;8.30;;;;;;;;;;5029889;28;20037;-65
2021/07/23 04:42:43;;;;;;;11.93;8.88;;;;;;;;;;5032393;28;20048;-65
2021/07/23 04:45:28;;;;;;;9.70;7.25;;;;;;;;;;5033022;28;20053;-65
2021/07/23 04:48:22;;;;;;;11.52;8.20;;;;;;;;;;5034238;28;20054;-65
2021/07/23 04:51:28;;;;;;;12.48;7.25;;;;;;;;;;5031596;28;20057;-65
2021/07/23 04:54:34;;;;;;;9.55;6.90;;;;;;;;;;5035348;28;20049;-65
2021/07/23 04:57:43;;;;;;;12.68;7.18;;;;;;;;;;5034922;28;20073;-65
2021/07/23 05:00:36;;;;;;;9.20;7.35;;;;;;;;;;5035022;28;20050;-65
2021/07/23 05:03:22;;;;;;;8.98;7.32;;;;;;;;;;5033231;28;20139;-65
2021/07/23 05:06:09;;;;;;;11.55;7.70;;;;;;;;;;5031497;28;20042;-65
2021/07/23 05:08:54;;;;;;;8.38;7.10;;;;;;;;;;5034912;28;20041;-65
2021/07/23 05:11:39;;;;;;;10.25;7.90;;;;;;;;;;5032362;28;20046;-65
2021/07/23 05:14:25;;;;;;;9.20;7.30;;;;;;;;;;5034972;28;20043;-65
2021/07/23 05:17:11;;;;;;;8.70;7.78;;;;;;;;;;5032676;28;20419;-65
2021/07/23 05:19:59;;;;;;;8.55;7.30;;;;;;;;;;5034064;28;20052;-64
2021/07/23 05:22:44;;;;;;;11.25;8.00;;;;;;;;;;5032214;28;20045;-65
2021/07/23 05:25:32;;;;;;;9.35;7.25;;;;;;;;;;5032272;28;20053;-65
2021/07/23 05:28:17;;;;;;;12.38;8.05;;;;;;;;;;5034433;28;20072;-64
2021/07/23 05:31:02;;;;;;;8.63;7.10;;;;;;;;;;5032143;28;20053;-65
2021/07/23 05:33:48;;;;;;;11.32;7.45;;;;;;;;;;5033956;28;20041;-65
2021/07/23 05:36:33;;;;;;;13.65;7.32;;;;;;;;;;5034572;28;20139;-64
2021/07/23 05:39:19;;;;;;;10.43;7.47;;;;;;;;;;5033145;28;20116;-66
2021/07/23 05:42:04;;;;;;;8.27;6.90;;;;;;;;;;5034319;28;20458;-65
2021/07/23 05:44:50;;;;;;;10.13;7.22;;;;;;;;;;5033632;28;20076;-65
2021/07/23 05:47:35;;;;;;;8.18;7.38;;;;;;;;;;5031617;28;20077;-66
2021/07/23 05:50:21;;;;;;;9.48;7.88;;;;;;;;;;5031739;28;20120;-65
2021/07/23 05:53:06;;;;;;;13.50;7.13;;;;;;;;;;5032474;28;20523;-65
2021/07/23 05:55:51;;;;;;;11.88;7.93;;;;;;;;;;5032340;28;20077;-65
2021/07/23 05:58:37;;;;;;;7.85;6.65;;;;;;;;;;5032766;28;20055;-65
2021/07/23 06:01:22;;;;;;;13.35;7.03;;;;;;;;;;5031492;28;20057;-65
2021/07/23 06:04:08;;;;;;;7.65;6.85;;;;;;;;;;5049986;22;20068;-63
2021/07/23 06:06:53;;;;;;;11.82;7.10;;;;;;;;;;5033937;28;20402;-65
2021/07/23 06:09:39;;;;;;;9.38;7.13;;;;;;;;;;5032701;28;20499;-65
2021/07/23 06:12:24;;;;;;;11.00;7.60;;;;;;;;;;5033723;28;20053;-65
2021/07/23 06:15:10;;;;;;;8.88;7.10;;;;;;;;;;5014210;28;20060;-65
2021/07/23 06:17:55;;;;;;;11.43;7.70;;;;;;;;;;5013722;28;20046;-65
2021/07/23 06:20:41;;;;;;;8.05;6.90;;;;;;;;;;5013044;28;20125;-65
2021/07/23 06:23:26;;;;;;;11.90;8.32;;;;;;;;;;5013902;28;20050;-65
2021/07/23 06:26:12;;;;;;;12.07;7.75;;;;;;;;;;5013887;28;20046;-65
2021/07/23 06:28:57;;;;;;;10.55;7.90;;;;;;;;;;5013254;28;20068;-64
2021/07/23 06:31:43;;;;;;;15.48;8.05;;;;;;;;;;5012120;28;20046;-65
2021/07/23 06:34:28;;;;;;;14.32;7.57;;;;;;;;;;5011211;28;20049;-65
2021/07/23 06:37:20;;;;;;;11.70;7.57;;;;;;;;;;5013574;28;20401;-65
2021/07/23 06:40:05;;;;;;;18.10;7.75;;;;;;;;;;5012613;28;20068;-65
2021/07/23 06:42:50;;;;;;;18.45;8.68;;;;;;;;;;5013367;28;20042;-65
2021/07/23 06:45:36;;;;;;;18.38;7.80;;;;;;;;;;5013460;28;20041;-65
2021/07/23 06:48:21;;;;;;;18.08;7.70;;;;;;;;;;5013409;28;20420;-65
2021/07/23 06:51:07;;;;;;;11.15;7.75;;;;;;;;;;5012242;28;20060;-65
2021/07/23 06:53:52;;;;;;;12.85;8.23;;;;;;;;;;5013231;28;20633;-65
2021/07/23 06:56:38;;;;;;;12.38;8.70;;;;;;;;;;5013177;28;20042;-65
2021/07/23 06:59:23;;;;;;;9.27;8.18;;;;;;;;;;5013114;28;20057;-65
2021/07/23 07:02:08;;;;;;;11.77;8.15;;;;;;;;;;5012257;28;20042;-66
2021/07/23 07:04:54;;;;;;;9.98;8.32;;;;;;;;;;5012126;28;20042;-65
2021/07/23 07:07:39;;;;;;;11.80;8.90;;;;;;;;;;5013184;28;20063;-66
2021/07/23 07:10:25;;;;;;;11.52;8.93;;;;;;;;;;5011961;28;20049;-66
2021/07/23 07:13:10;;;;;;;13.70;8.82;;;;;;;;;;5012950;28;20506;-66
2021/07/23 07:15:55;;;;;;;9.63;8.55;;;;;;;;;;5009507;28;20416;-66
2021/07/23 07:18:42;;;;;;;12.35;9.00;;;;;;;;;;4993121;28;20493;-65
2021/07/23 07:21:27;;;;;;;13.38;10.43;;;;;;;;;;5005646;28;20085;-65
2021/07/23 07:24:12;;;;;;;10.70;9.60;;;;;;;;;;5012813;28;20053;-65
2021/07/23 07:26:58;;;;;;;11.85;9.40;;;;;;;;;;5012693;28;20045;-65
2021/07/23 07:29:43;;;;;;;40.40;12.73;;;;;;;;;;5012163;28;20516;-65
2021/07/23 07:32:28;;;;;;;15.88;12.48;;;;;;;;;;5010634;28;20077;-65
2021/07/23 07:35:14;;;;;;;11.60;10.45;;;;;;;;;;5011692;28;20534;-65
2021/07/23 07:37:59;;;;;;;19.08;11.40;;;;;;;;;;5012194;28;20057;-65
2021/07/23 07:40:44;;;;;;;13.93;11.70;;;;;;;;;;5010805;28;20511;-65
2021/07/23 07:43:30;;;;;;;14.02;12.55;;;;;;;;;;5011638;28;20050;-66
2021/07/23 07:46:15;;;;;;;18.95;15.00;;;;;;;;;;5011520;28;20046;-65
2021/07/23 07:49:00;;;;;;;17.40;15.10;;;;;;;;;;5012211;28;20503;-65
2021/07/23 07:51:46;;;;;;;15.40;13.90;;;;;;;;;;5010844;28;20115;-66
2021/07/23 07:54:32;;;;;;;15.98;13.88;;;;;;;;;;5012052;28;20476;-65
2021/07/23 07:57:17;;;;;;;15.25;13.65;;;;;;;;;;5011888;28;20044;-65
2021/07/23 08:00:02;;;;;;;14.38;12.98;;;;;;;;;;5009806;28;20050;-65
2021/07/23 08:02:48;;;;;;;13.32;12.00;;;;;;;;;;5011345;28;20046;-66
2021/07/23 08:05:33;;;;;;;15.98;12.73;;;;;;;;;;5010807;28;20049;-65
2021/07/23 08:08:20;;;;;;;16.08;14.38;;;;;;;;;;5009759;28;20407;-65
2021/07/23 08:11:05;;;;;;;13.98;11.77;;;;;;;;;;5007609;28;20049;-66
2021/07/23 08:13:51;;;;;;;16.42;12.57;;;;;;;;;;4992501;28;20127;-66
2021/07/23 08:16:36;;;;;;;13.77;12.20;;;;;;;;;;4992615;28;20185;-66
2021/07/23 08:19:22;;;;;;;16.67;12.18;;;;;;;;;;4992244;28;20065;-66
2021/07/23 08:22:07;;;;;;;14.90;12.77;;;;;;;;;;5029020;28;20117;-65
2021/07/23 08:24:52;;;;;;;17.90;12.05;;;;;;;;;;5012038;28;20046;-65
2021/07/23 08:27:38;;;;;;;15.57;13.60;;;;;;;;;;5012270;28;20045;-66
2021/07/23 08:30:23;;;;;;;15.82;13.43;;;;;;;;;;5012003;28;20148;-65
2021/07/23 08:33:08;;;;;;;16.10;12.70;;;;;;;;;;5010932;28;20045;-66
2021/07/23 08:35:54;;;;;;;16.58;14.07;;;;;;;;;;5011209;28;20069;-66
2021/07/23 08:38:39;;;;;;;15.57;14.07;;;;;;;;;;5011950;28;20042;-65
2021/07/23 08:41:24;;;;;;;14.10;12.63;;;;;;;;;;5011653;28;20516;-66
2021/07/23 08:44:10;;;;;;;14.80;13.25;;;;;;;;;;5011900;28;20060;-65
2021/07/23 08:46:55;;;;;;;21.90;14.25;;;;;;;;;;5010204;28;20057;-65
2021/07/23 08:49:40;;;;;;;16.55;12.60;;;;;;;;;;5011561;28;20522;-66
2021/07/23 08:52:44;;;;;;;21.95;11.95;;;;;;;;;;5038570;28;20061;-66
2021/07/23 08:55:32;;;;;;;13.27;11.48;;;;;;;;;;5012114;28;20423;-66
2021/07/23 08:58:19;;;;;;;14.05;11.07;;;;;;;;;;5015455;28;20046;-65
2021/07/23 09:01:06;;;;;;;13.20;11.68;;;;;;;;;;5012519;28;20077;-66
2021/07/23 09:03:51;;;;;;;15.38;12.15;;;;;;;;;;5012169;28;20048;-66
2021/07/23 09:06:36;;;;;;;14.90;12.95;;;;;;;;;;5010326;28;20515;-66
2021/07/23 09:09:22;;;;;;;13.90;11.13;;;;;;;;;;5011050;28;20046;-66
2021/07/23 09:12:07;;;;;;;12.30;10.60;;;;;;;;;;5014708;28;20060;-66
2021/07/23 09:14:53;;;;;;;12.15;10.95;;;;;;;;;;5007168;28;20045;-66
2021/07/23 09:17:41;;;;;;;12.10;10.90;;;;;;;;;;5027323;28;20615;-66
2021/07/23 09:20:28;;;;;;;13.07;11.25;;;;;;;;;;5014100;28;20381;-66
2021/07/23 09:23:13;;;;;;;11.90;10.10;;;;;;;;;;5015518;28;20056;-66
2021/07/23 09:26:02;;;;;;;11.02;9.68;;;;;;;;;;5040936;28;20045;-66
2021/07/23 09:28:49;;;;;;;12.07;9.82;;;;;;;;;;5015010;28;20058;-65
2021/07/23 09:31:34;;;;;;;11.40;10.20;;;;;;;;;;5014139;28;20077;-65
2021/07/23 09:34:31;;;;;;;12.40;9.23;;;;;;;;;;5014824;28;20041;-65
2021/07/23 09:37:16;;;;;;;14.93;9.85;;;;;;;;;;5013496;28;20049;-66
2021/07/23 09:40:01;;;;;;;12.30;9.73;;;;;;;;;;5013511;28;20053;-65
2021/07/23 09:42:55;;;;;;;10.65;9.20;;;;;;;;;;5014270;28;20125;-65
2021/07/23 09:45:41;;;;;;;10.45;9.15;;;;;;;;;;5012099;28;20100;-66
2021/07/23 09:48:27;;;;;;;9.30;8.40;;;;;;;;;;5014160;28;20199;-65
2021/07/23 09:51:12;;;;;;;11.70;9.00;;;;;;;;;;5013081;28;20045;-66
2021/07/23 09:53:57;;;;;;;12.10;9.13;;;;;;;;;;5014104;28;20565;-65
2021/07/23 09:56:43;;;;;;;13.02;8.63;;;;;;;;;;5014489;28;20058;-65
2021/07/23 09:59:58;;;;;;;13.18;8.30;;;;;;;;;;5014707;28;20052;-66
2021/07/23 10:02:44;;;;;;;8.88;7.85;;;;;;;;;;5010209;28;20416;-65
2021/07/23 10:05:34;;;;;;;8.57;7.68;;;;;;;;;;5015291;28;20507;-65
2021/07/23 10:08:21;;;;;;;12.27;8.15;;;;;;;;;;5014042;28;20057;-65
2021/07/23 10:11:07;;;;;;;9.85;8.30;;;;;;;;;;5013941;28;20052;-65
2021/07/23 10:13:53;;;;;;;8.10;7.30;;;;;;;;;;5007810;28;20038;-66
2021/07/23 10:16:40;;;;;;;11.07;7.85;;;;;;;;;;4995526;28;20438;-66
2021/07/23 10:19:25;;;;;;;8.82;7.13;;;;;;;;;;4995211;28;20046;-66
2021/07/23 10:22:12;;;;;;;10.32;7.35;;;;;;;;;;4999667;28;20408;-66
2021/07/23 10:24:57;;;;;;;9.43;8.38;;;;;;;;;;5014057;28;20068;-65
2021/07/23 10:27:42;;;;;;;8.48;7.38;;;;;;;;;;5014304;28;20060;-66
2021/07/23 10:30:31;;;;;;;8.60;6.70;;;;;;;;;;5013836;28;20540;-66
2021/07/23 10:33:17;;;;;;;8.65;7.68;;;;;;;;;;5002673;28;20058;-66
2021/07/23 10:36:02;;;;;;;6.13;5.47;;;;;;;;;;5021639;28;20049;-66
2021/07/23 10:38:51;;;;;;;9.10;6.75;;;;;;;;;;5009793;28;20557;-66
2021/07/23 10:41:37;;;;;;;7.63;6.07;;;;;;;;;;5026754;28;20096;-66
2021/07/23 10:44:29;;;;;;;6.93;5.28;;;;;;;;;;5004154;28;20069;-66
2021/07/23 10:47:14;;;;;;;6.63;5.45;;;;;;;;;;5005748;28;20045;-66
2021/07/23 10:49:59;;;;;;;8.63;5.22;;;;;;;;;;5010004;28;20052;-66
2021/07/23 10:52:45;;;;;;;5.28;4.63;;;;;;;;;;5001535;28;20612;-66
2021/07/23 10:55:30;;;;;;;7.40;5.80;;;;;;;;;;5009592;28;20784;-66
2021/07/23 10:58:21;;;;;;;6.38;5.75;;;;;;;;;;5005846;28;20492;-66
2021/07/23 11:01:06;;;;;;;6.65;5.30;;;;;;;;;;5009806;28;20092;-66
2021/07/23 11:03:58;;;;;;;6.03;5.43;;;;;;;;;;5012083;28;20056;-66
2021/07/23 11:06:44;;;;;;;8.95;5.85;;;;;;;;;;5036967;28;20057;-66
2021/07/23 11:09:32;;;;;;;7.20;6.40;;;;;;;;;;5036499;28;20052;-65
2021/07/23 11:12:18;;;;;;;8.38;6.03;;;;;;;;;;5010091;28;20056;-65
2021/07/23 11:15:07;;;;;;;7.57;6.43;;;;;;;;;;5010951;28;20429;-66
2021/07/23 11:17:54;;;;;;;13.02;5.85;;;;;;;;;;5012572;28;20447;-66
2021/07/23 11:20:39;;;;;;;7.93;5.22;;;;;;;;;;5011303;28;20446;-66
2021/07/23 11:23:30;;;;;;;6.50;5.75;;;;;;;;;;5009382;28;20066;-66
2021/07/23 11:26:24;;;;;;;7.85;5.15;;;;;;;;;;5009215;28;20045;-66
2021/07/23 11:29:10;;;;;;;7.82;5.40;;;;;;;;;;5010434;28;20464;-66
2021/07/23 11:31:55;;;;;;;7.35;5.35;;;;;;;;;;5010946;28;20577;-66
2021/07/23 11:34:44;;;;;;;5.28;4.43;;;;;;;;;;5008405;28;20512;-66
2021/07/23 11:37:30;;;;;;;6.78;5.50;;;;;;;;;;5008956;28;20100;-66
2021/07/23 11:40:16;;;;;;;7.70;4.90;;;;;;;;;;5009621;28;20532;-66
2021/07/23 11:43:01;;;;;;;6.25;4.72;;;;;;;;;;5013679;28;20050;-66
2021/07/23 11:45:46;;;;;;;6.75;4.97;;;;;;;;;;5006695;28;20187;-66
2021/07/23 11:48:32;;;;;;;5.72;4.72;;;;;;;;;;5001594;28;20049;-66
2021/07/23 11:51:17;;;;;;;5.70;4.78;;;;;;;;;;4990284;28;20141;-66
2021/07/23 11:54:02;;;;;;;8.82;5.05;;;;;;;;;;4995225;28;20534;-66
2021/07/23 11:56:47;;;;;;;5.70;4.90;;;;;;;;;;5011964;28;20053;-66
2021/07/23 11:59:37;;;;;;;7.95;4.97;;;;;;;;;;5008222;28;20107;-66
2021/07/23 12:02:28;;;;;;;6.25;4.35;;;;;;;;;;5009863;28;20099;-67
2021/07/23 12:05:14;;;;;;;;;;;;;;;;;;5085545;22;20067;-66
2021/07/23 12:08:00;;;;;;;6.13;3.45;;;;;;;;;;5047976;28;19920;-66
2021/07/23 12:10:46;;;;;;;3.50;3.20;;;;;;;;;;5045336;28;20123;-67
2021/07/23 12:13:31;;;;;;;8.90;3.72;;;;;;;;;;5056132;28;20119;-67
2021/07/23 12:16:16;;;;;;;5.50;3.75;;;;;;;;;;5039084;28;20048;-67
2021/07/23 12:19:04;;;;;;;5.38;4.03;;;;;;;;;;5048645;28;20048;-66
2021/07/23 12:21:49;;;;;;;4.22;3.83;;;;;;;;;;5043153;28;20044;-67
2021/07/23 12:24:35;;;;;;;4.40;3.33;;;;;;;;;;5043072;28;20499;-67
2021/07/23 12:27:24;;;;;;;4.93;3.95;;;;;;;;;;5045188;28;20037;-67
2021/07/23 12:30:10;;;;;;;7.10;3.63;;;;;;;;;;5046177;28;20110;-65
2021/07/23 12:33:09;;;;;;;5.80;3.88;;;;;;;;;;5052567;28;20041;-68
2021/07/23 12:35:57;;;;;;;4.55;3.22;;;;;;;;;;5043046;28;20167;-67
2021/07/23 12:38:56;;;;;;;4.75;3.33;;;;;;;;;;5051355;28;20171;-66
2021/07/23 12:41:41;;;;;;;3.78;3.33;;;;;;;;;;5043640;28;20672;-67
2021/07/23 12:44:35;;;;;;;5.05;3.22;;;;;;;;;;5050914;28;20052;-66
2021/07/23 12:47:21;;;;;;;7.47;3.75;;;;;;;;;;5052297;28;20059;-67
2021/07/23 12:50:13;;;;;;;5.57;3.08;;;;;;;;;;5052266;28;20132;-66
2021/07/23 12:52:58;;;;;;;5.85;3.55;;;;;;;;;;5053289;28;20044;-67
2021/07/23 12:55:43;;;;;;;5.78;3.38;;;;;;;;;;5053806;28;20047;-67
2021/07/23 12:58:41;;;;;;;14.73;3.88;;;;;;;;;;5054038;28;20059;-66
2021/07/23 13:01:27;;;;;;;5.18;3.53;;;;;;;;;;5053854;28;20179;-67
2021/07/23 13:04:12;;;;;;;7.38;4.05;;;;;;;;;;5035225;28;20126;-67
2021/07/23 13:06:57;;;;;;;6.60;4.60;;;;;;;;;;5052001;28;20040;-66
2021/07/23 13:09:43;;;;;;;5.78;4.72;;;;;;;;;;5050866;28;20048;-67
2021/07/23 13:12:28;;;;;;;7.32;4.63;;;;;;;;;;5040026;28;20041;-67
2021/07/23 13:15:18;;;;;;;7.93;5.47;;;;;;;;;;5048072;28;20045;-66
2021/07/23 13:18:04;;;;;;;7.43;5.28;;;;;;;;;;5040462;28;20056;-67
2021/07/23 13:20:49;;;;;;;7.18;6.00;;;;;;;;;;5051697;28;20048;-67
2021/07/23 13:23:34;;;;;;;7.38;5.50;;;;;;;;;;5052638;28;20057;-67
2021/07/23 13:26:20;;;;;;;8.73;6.18;;;;;;;;;;5050810;28;20048;-67
2021/07/23 13:29:08;;;;;;;10.18;5.78;;;;;;;;;;5052747;28;20534;-66
2021/07/23 13:31:53;;;;;;;7.50;5.68;;;;;;;;;;5050825;28;20051;-67
2021/07/23 13:34:38;;;;;;;6.75;5.47;;;;;;;;;;5052479;28;20191;-68
2021/07/23 13:37:29;;;;;;;8.75;5.43;;;;;;;;;;5049579;28;20560;-67
2021/07/23 13:40:15;;;;;;;7.82;5.53;;;;;;;;;;5050552;28;20114;-68
2021/07/23 13:43:02;;;;;;;9.70;6.18;;;;;;;;;;5051207;28;20068;-69
2021/07/23 13:45:47;;;;;;;8.93;5.75;;;;;;;;;;5059587;28;20571;-67
2021/07/23 13:48:32;;;;;;;6.70;5.43;;;;;;;;;;5043385;28;20051;-68
2021/07/23 13:51:19;;;;;;;9.95;5.65;;;;;;;;;;5048159;28;20048;-66
2021/07/23 13:54:04;;;;;;;9.63;6.45;;;;;;;;;;5051913;28;20068;-66
2021/07/23 13:56:49;;;;;;;5.95;5.35;;;;;;;;;;5050287;28;20444;-67
2021/07/23 13:59:35;;;;;;;10.15;5.85;;;;;;;;;;5051419;28;20110;-67
2021/07/23 14:02:20;;;;;;;7.85;5.85;;;;;;;;;;5049159;28;20238;-67
2021/07/23 14:05:08;;;;;;;8.13;5.70;;;;;;;;;;5050041;28;20052;-66
2021/07/23 14:07:54;;;;;;;8.25;5.70;;;;;;;;;;5051670;28;20044;-66
2021/07/23 14:10:39;;;;;;;10.48;5.57;;;;;;;;;;5049842;28;20045;-67
2021/07/23 14:13:24;;;;;;;10.50;5.50;;;;;;;;;;5047263;28;20407;-67
2021/07/23 14:16:10;;;;;;;12.43;5.30;;;;;;;;;;5049455;28;20117;-67
2021/07/23 14:18:55;;;;;;;7.80;4.85;;;;;;;;;;5051473;28;20414;-67
2021/07/23 14:21:40;;;;;;;6.65;4.80;;;;;;;;;;5050014;28;20072;-67
2021/07/23 14:24:25;;;;;;;14.02;5.90;;;;;;;;;;5049250;28;20088;-67
2021/07/23 14:27:11;;;;;;;7.80;5.30;;;;;;;;;;5049979;28;20044;-67
2021/07/23 14:29:56;;;;;;;6.13;4.93;;;;;;;;;;5049487;28;20118;-67
2021/07/23 14:32:41;;;;;;;9.27;4.95;;;;;;;;;;5050630;28;20052;-67
2021/07/23 14:35:26;;;;;;;6.53;5.43;;;;;;;;;;5049526;28;20056;-67
2021/07/23 14:38:12;;;;;;;7.63;4.88;;;;;;;;;;5050877;28;20044;-67
2021/07/23 14:40:57;;;;;;;7.38;4.35;;;;;;;;;;5048287;28;20041;-67
2021/07/23 14:43:43;;;;;;;6.20;4.85;;;;;;;;;;5051225;28;20119;-67
2021/07/23 14:46:29;;;;;;;7.03;4.93;;;;;;;;;;5046170;28;20145;-67
2021/07/23 14:49:14;;;;;;;7.32;4.75;;;;;;;;;;5050155;28;20060;-66
2021/07/23 14:52:00;;;;;;;6.40;4.80;;;;;;;;;;5051433;28;20052;-68
2021/07/23 14:54:45;;;;;;;6.82;4.85;;;;;;;;;;5050758;28;20068;-68
2021/07/23 14:57:31;;;;;;;6.57;5.07;;;;;;;;;;5049052;28;20502;-68
2021/07/23 15:00:18;;;;;;;6.43;4.50;;;;;;;;;;5048752;28;20503;-68
2021/07/23 15:03:04;;;;;;;9.60;5.13;;;;;;;;;;5045094;28;20118;-68
2021/07/23 15:05:50;;;;;;;6.70;4.63;;;;;;;;;;5050709;28;20056;-68
2021/07/23 15:08:35;;;;;;;11.68;4.53;;;;;;;;;;5051029;28;20048;-68
2021/07/23 15:11:21;;;;;;;9.02;5.32;;;;;;;;;;5048508;28;20564;-68
2021/07/23 15:14:07;;;;;;;5.75;3.88;;;;;;;;;;5049932;28;20411;-68
2021/07/23 15:16:53;;;;;;;5.65;4.60;;;;;;;;;;5049004;28;20084;-68
2021/07/23 15:19:38;;;;;;;6.05;4.50;;;;;;;;;;5033935;28;20065;-68
2021/07/23 15:22:25;;;;;;;5.93;4.47;;;;;;;;;;5047441;28;20130;-68
2021/07/23 15:25:12;;;;;;;5.45;4.57;;;;;;;;;;5047916;28;20052;-68
2021/07/23 15:27:59;;;;;;;7.63;4.30;;;;;;;;;;5049431;28;20041;-68
2021/07/23 15:30:44;;;;;;;7.43;3.60;;;;;;;;;;5029676;28;20045;-68
2021/07/23 15:33:29;;;;;;;7.55;4.43;;;;;;;;;;5028758;28;20049;-68
2021/07/23 15:36:14;;;;;;;8.15;4.30;;;;;;;;;;5049415;28;20135;-68
2021/07/23 15:38:59;;;;;;;8.70;4.35;;;;;;;;;;5050310;28;20048;-68
2021/07/23 15:41:45;;;;;;;5.65;4.50;;;;;;;;;;5048341;28;20187;-68
2021/07/23 15:44:30;;;;;;;5.13;4.32;;;;;;;;;;5048550;28;20037;-68
2021/07/23 15:47:16;;;;;;;5.75;5.03;;;;;;;;;;5047557;28;20119;-68
2021/07/23 15:50:01;;;;;;;5.40;4.47;;;;;;;;;;5049999;28;20103;-68
2021/07/23 15:52:46;;;;;;;4.70;3.90;;;;;;;;;;5049828;28;20048;-68
2021/07/23 15:55:31;;;;;;;7.93;4.63;;;;;;;;;;5048020;28;20111;-68
2021/07/23 15:58:16;;;;;;;6.97;4.32;;;;;;;;;;5049416;28;20049;-68
2021/07/23 16:01:02;;;;;;;25.90;5.38;;;;;;;;;;5047672;28;20175;-68
2021/07/23 16:03:47;;;;;;;5.32;4.10;;;;;;;;;;5044051;28;20529;-68
2021/07/23 16:06:33;;;;;;;5.78;4.10;;;;;;;;;;5048888;28;20079;-68
2021/07/23 16:09:18;;;;;;;7.05;4.40;;;;;;;;;;5046895;28;20037;-67
2021/07/23 16:12:04;;;;;;;5.28;4.07;;;;;;;;;;5050000;28;20491;-68
2021/07/23 16:14:49;;;;;;;5.47;3.83;;;;;;;;;;5046807;28;20041;-68
2021/07/23 16:17:34;;;;;;;5.10;4.38;;;;;;;;;;5048030;28;20075;-68
2021/07/23 16:20:19;;;;;;;6.00;4.38;;;;;;;;;;5048796;28;20060;-70
2021/07/23 16:23:04;;;;;;;5.40;4.40;;;;;;;;;;5047145;28;20064;-69
2021/07/23 16:25:50;;;;;;;15.43;7.80;;;;;;;;;;5047026;28;20111;-68
2021/07/23 16:28:35;;;;;;;6.13;4.47;;;;;;;;;;5047858;28;20116;-69